Time;durP1;ratioP1;P1;durP2;ratioP2;P2;SDS_P1;SDS_P2;PMS_P1;PMS_P2;Temp;Humidity;BMP_temperature;BMP_pressure;BME280_temperature;BME280_humidity;BME280_pressure;Samples;Min_cycle;Max_cycle;Signal;HPM_P1;HPM_P2
2022/02/22 00:00:57;;;;;;;;;;;;;;;16.94;53.23;101776.34;4977546;28;19922;-74
2022/02/22 00:03:23;;;;;;;;;;;;;;;16.93;53.02;101788.50;4977623;28;20377;-75
2022/02/22 00:05:48;;;;;;;;;;;;;;;16.94;53.09;101800.66;4977678;28;19926;-77
2022/02/22 00:08:13;;;;;;;;;;;;;;;16.93;53.02;101793.69;4977557;28;19964;-79
2022/02/22 00:10:39;;;;;;;;;;;;;;;16.93;53.00;101800.63;4977572;28;19941;-77
2022/02/22 00:13:04;;;;;;;;;;;;;;;16.94;52.96;101812.75;4977718;28;19918;-78
2022/02/22 00:15:29;;;;;;;;;;;;;;;16.93;52.84;101817.09;4995148;28;19918;-76
2022/02/22 00:17:54;;;;;;;;;;;;;;;16.93;52.71;101821.44;4995240;28;19961;-77
2022/02/22 00:20:20;;;;;;;;;;;;;;;16.92;52.98;101812.75;4993664;28;19925;-79
2022/02/22 00:22:45;;;;;;;;;;;;;;;16.92;52.82;101814.47;4993647;28;19920;-78
2022/02/22 00:25:12;;;;;;;;;;;;;;;16.92;52.65;101814.47;4977758;28;20005;-77
2022/02/22 00:27:39;;;;;;;;;;;;;;;16.92;52.83;101822.28;4994995;28;19945;-77
2022/02/22 00:30:05;;;;;;;;;;;;;;;16.91;52.72;101825.75;4993726;28;20252;-78
2022/02/22 00:32:30;;;;;;;;;;;;;;;16.91;52.65;101843.94;4994928;28;19921;-81
2022/02/22 00:34:55;;;;;;;;;;;;;;;16.91;52.81;101841.34;4976902;28;20369;-78
2022/02/22 00:37:21;;;;;;;;;;;;;;;16.90;52.74;101843.06;4977131;28;20319;-79
2022/02/22 00:39:46;;;;;;;;;;;;;;;16.90;52.75;101843.06;4994791;28;19922;-79
2022/02/22 00:42:11;;;;;;;;;;;;;;;16.89;52.78;101841.31;4993367;28;19917;-78
2022/02/22 00:44:37;;;;;;;;;;;;;;;16.90;52.63;101842.19;4977371;28;19922;-77
2022/02/22 00:47:02;;;;;;;;;;;;;;;16.88;52.74;101834.38;4993178;28;20352;-79
2022/02/22 00:49:27;;;;;;;;;;;;;;;16.89;52.66;101838.72;4977254;28;19943;-77
2022/02/22 00:51:52;;;;;;;;;;;;;;;16.88;52.66;101839.59;4977047;28;19918;-77
2022/02/22 00:54:18;;;;;;;;;;;;;;;16.87;52.75;101835.22;4977062;28;20328;-79
2022/02/22 00:56:43;;;;;;;;;;;;;;;16.88;52.58;101837.00;4977331;28;19924;-78
2022/02/22 00:59:09;;;;;;;;;;;;;;;16.88;52.65;101839.59;4994473;28;19922;-79
2022/02/22 01:01:34;;;;;;;;;;;;;;;16.88;52.68;101843.94;4993172;28;19945;-79
2022/02/22 01:03:59;;;;;;;;;;;;;;;16.87;52.57;101840.44;4976960;28;19988;-80
2022/02/22 01:06:25;;;;;;;;;;;;;;;16.87;52.55;101840.44;4977206;28;19922;-77
2022/02/22 01:08:50;;;;;;;;;;;;;;;16.86;52.38;101847.38;4977076;28;19925;-77
2022/02/22 01:11:15;;;;;;;;;;;;;;;16.86;52.51;101844.78;4994713;28;19925;-78
2022/02/22 01:13:40;;;;;;;;;;;;;;;16.85;52.41;101834.34;4977320;28;19918;-77
2022/02/22 01:16:06;;;;;;;;;;;;;;;16.86;52.52;101847.38;4976971;28;20336;-76
2022/02/22 01:18:31;;;;;;;;;;;;;;;16.86;52.63;101862.09;4994531;28;19929;-77
2022/02/22 01:20:56;;;;;;;;;;;;;;;16.85;52.35;101862.94;4994401;28;19929;-77
2022/02/22 01:23:21;;;;;;;;;;;;;;;16.85;52.50;101869.03;4977161;28;19925;-76
2022/02/22 01:25:47;;;;;;;;;;;;;;;16.86;52.40;101875.09;4977145;28;19922;-77
2022/02/22 01:28:12;;;;;;;;;;;;;;;16.85;52.32;101883.75;4977156;28;19972;-77
2022/02/22 01:30:37;;;;;;;;;;;;;;;16.85;52.36;101883.75;4994404;28;20005;-79
2022/02/22 01:33:03;;;;;;;;;;;;;;;16.84;52.21;101875.06;4976963;28;19965;-78
2022/02/22 01:35:28;;;;;;;;;;;;;;;16.83;52.42;101867.25;4994150;28;19914;-78
2022/02/22 01:37:53;;;;;;;;;;;;;;;16.84;52.31;101874.22;4976847;28;19918;-79
2022/02/22 01:40:18;;;;;;;;;;;;;;;16.83;52.46;101870.75;4994074;28;19972;-77
2022/02/22 01:42:44;;;;;;;;;;;;;;;16.83;52.44;101881.16;4976706;28;19918;-78
2022/02/22 01:45:09;;;;;;;;;;;;;;;16.83;52.31;101885.44;4976768;28;20230;-78
2022/02/22 01:47:35;;;;;;;;;;;;;;;16.82;52.21;101879.38;4997783;28;19914;-77
2022/02/22 01:50:00;;;;;;;;;;;;;;;16.83;52.37;101880.25;4997980;28;20402;-79
2022/02/22 01:52:27;;;;;;;;;;;;;;;16.82;52.09;101881.13;4997745;28;19914;-77
2022/02/22 01:54:53;;;;;;;;;;;;;;;16.82;52.23;101876.78;4980535;28;19918;-77
2022/02/22 01:57:18;;;;;;;;;;;;;;;16.82;52.31;101883.72;4996465;28;20291;-81
2022/02/22 01:59:44;;;;;;;;;;;;;;;16.81;52.25;101880.25;4997681;28;19913;-79
2022/02/22 02:02:10;;;;;;;;;;;;;;;16.81;52.17;101880.25;4996079;28;20017;-79
2022/02/22 02:04:35;;;;;;;;;;;;;;;16.80;52.29;101885.44;4997357;28;19922;-77
2022/02/22 02:07:01;;;;;;;;;;;;;;;16.81;52.23;101895.84;4979955;28;19964;-80
2022/02/22 02:09:26;;;;;;;;;;;;;;;16.80;52.01;101896.69;4980017;28;20013;-78
2022/02/22 02:11:56;;;;;;;;;;;;;;;16.80;52.32;101899.28;4997569;28;19906;-78
2022/02/22 02:14:21;;;;;;;;;;;;;;;16.81;52.22;101894.97;4996184;28;19914;-78
2022/02/22 02:16:46;;;;;;;;;;;;;;;16.80;52.29;101894.09;4997585;28;19972;-79
2022/02/22 02:19:13;;;;;;;;;;;;;;;16.80;52.20;101885.44;4996040;28;19968;-80
2022/02/22 02:21:39;;;;;;;;;;;;;;;16.79;51.83;101887.13;4979632;28;19926;-80
2022/02/22 02:24:07;;;;;;;;;;;;;;;16.80;52.06;101901.03;4995935;28;19914;-79
2022/02/22 02:26:33;;;;;;;;;;;;;;;16.80;52.24;101893.22;4979477;28;19921;-80
2022/02/22 02:28:58;;;;;;;;;;;;;;;16.79;52.14;101881.94;4980162;28;19918;-78
2022/02/22 02:31:23;;;;;;;;;;;;;;;16.79;51.94;101896.66;4997226;28;19914;-77
2022/02/22 02:33:48;;;;;;;;;;;;;;;16.80;51.88;101899.28;4979633;28;19917;-78
2022/02/22 02:36:14;;;;;;;;;;;;;;;16.81;52.07;101894.97;4979754;28;19951;-78
2022/02/22 02:38:40;;;;;;;;;;;;;;;16.80;52.20;101893.22;4979597;28;19917;-78
2022/02/22 02:41:06;;;;;;;;;;;;;;;16.79;51.88;101884.53;4980398;28;20375;-77
2022/02/22 02:43:31;;;;;;;;;;;;;;;16.79;52.05;101891.47;4995512;28;20014;-78
2022/02/22 02:45:57;;;;;;;;;;;;;;;16.80;52.09;101893.22;4979260;28;19922;-77
2022/02/22 02:48:22;;;;;;;;;;;;;;;16.79;52.01;101891.47;4996480;28;19909;-78
2022/02/22 02:50:47;;;;;;;;;;;;;;;16.78;52.06;101893.16;4996640;28;19924;-78
2022/02/22 02:53:12;;;;;;;;;;;;;;;16.79;52.12;101892.34;4996589;28;19921;-81
2022/02/22 02:55:39;;;;;;;;;;;;;;;16.79;52.09;101894.06;4979283;28;19968;-76
2022/02/22 02:58:04;;;;;;;;;;;;;;;16.79;52.03;101892.34;4978587;28;19918;-76
2022/02/22 03:00:30;;;;;;;;;;;;;;;16.78;52.04;101879.31;4979072;28;19980;-77
2022/02/22 03:02:55;;;;;;;;;;;;;;;16.77;52.04;101881.03;4979196;28;19918;-77
2022/02/22 03:05:22;;;;;;;;;;;;;;;16.77;51.99;101882.78;4996178;28;19996;-78
2022/02/22 03:07:47;;;;;;;;;;;;;;;16.78;51.82;101887.09;4978787;28;19921;-77
2022/02/22 03:10:12;;;;;;;;;;;;;;;16.77;52.05;101880.19;4996438;28;19928;-77
2022/02/22 03:12:38;;;;;;;;;;;;;;;16.77;51.90;101887.97;4996358;28;19914;-77
2022/02/22 03:15:03;;;;;;;;;;;;;;;16.77;51.95;101875.84;4978835;28;19917;-76
2022/02/22 03:17:28;;;;;;;;;;;;;;;16.77;51.92;101880.19;4978929;28;19928;-77
2022/02/22 03:19:54;;;;;;;;;;;;;;;16.77;51.97;101873.25;4978833;28;19918;-77
2022/02/22 03:22:19;;;;;;;;;;;;;;;16.77;52.02;101881.03;4996099;28;20008;-77
2022/02/22 03:24:44;;;;;;;;;;;;;;;16.77;52.03;101867.19;4996081;28;19960;-78
2022/02/22 03:27:10;;;;;;;;;;;;;;;16.76;51.90;101868.88;4978314;28;19918;-78
2022/02/22 03:29:35;;;;;;;;;;;;;;;16.76;51.89;101871.47;4978327;28;20339;-77
2022/02/22 03:32:00;;;;;;;;;;;;;;;16.76;51.80;101870.63;4978508;28;19918;-78
2022/02/22 03:34:25;;;;;;;;;;;;;;;16.76;51.67;101870.63;4996144;28;19918;-77
2022/02/22 03:36:51;;;;;;;;;;;;;;;16.76;51.90;101862.81;4978279;28;19924;-78
2022/02/22 03:39:16;;;;;;;;;;;;;;;16.76;51.73;101860.22;4978276;28;20492;-77
2022/02/22 03:41:41;;;;;;;;;;;;;;;16.74;51.69;101862.78;4978179;28;20023;-79
2022/02/22 03:44:06;;;;;;;;;;;;;;;16.76;51.63;101868.03;4978597;28;19972;-79
2022/02/22 03:46:32;;;;;;;;;;;;;;;16.74;51.69;101870.59;4978090;28;19913;-77
2022/02/22 03:48:57;;;;;;;;;;;;;;;16.76;51.68;101879.28;4994361;28;20269;-77
2022/02/22 03:51:22;;;;;;;;;;;;;;;16.75;51.76;101879.28;4977975;28;20383;-77
2022/02/22 03:53:47;;;;;;;;;;;;;;;16.74;51.79;101878.41;4978013;28;19936;-78
2022/02/22 03:56:13;;;;;;;;;;;;;;;16.75;51.67;101885.34;4995460;28;19918;-77
2022/02/22 03:58:38;;;;;;;;;;;;;;;16.75;51.73;101889.69;4977847;28;20260;-77
2022/02/22 04:01:03;;;;;;;;;;;;;;;16.74;51.57;101887.94;4977912;28;19961;-78
2022/02/22 04:03:29;;;;;;;;;;;;;;;16.75;51.64;101884.50;4977676;28;19913;-78
2022/02/22 04:05:54;;;;;;;;;;;;;;;16.73;51.78;101881.00;4977311;28;20339;-79
2022/02/22 04:08:19;;;;;;;;;;;;;;;16.72;51.55;101893.09;4977168;28;19929;-77
2022/02/22 04:10:44;;;;;;;;;;;;;;;16.73;51.78;101891.41;4977825;28;20283;-78
2022/02/22 04:13:10;;;;;;;;;;;;;;;16.72;51.69;101890.50;4995400;28;20349;-77
2022/02/22 04:15:35;;;;;;;;;;;;;;;16.73;51.58;101891.41;4978173;28;19918;-80
2022/02/22 04:18:00;;;;;;;;;;;;;;;16.72;51.59;101887.91;4977771;28;19917;-76
2022/02/22 04:20:25;;;;;;;;;;;;;;;16.72;51.56;101887.91;4977548;28;19922;-79
2022/02/22 04:22:51;;;;;;;;;;;;;;;16.72;51.57;101887.03;4977563;28;20372;-79
2022/02/22 04:25:16;;;;;;;;;;;;;;;16.72;51.73;101884.44;4977773;28;20057;-78
2022/02/22 04:27:41;;;;;;;;;;;;;;;16.72;51.44;101897.44;4994848;28;19913;-77
2022/02/22 04:30:07;;;;;;;;;;;;;;;16.71;51.65;101891.38;4977487;28;19956;-77
2022/02/22 04:32:33;;;;;;;;;;;;;;;16.70;51.34;101887.03;4977363;28;19914;-76
2022/02/22 04:34:58;;;;;;;;;;;;;;;16.71;51.67;101885.31;4994818;28;19925;-77
2022/02/22 04:37:23;;;;;;;;;;;;;;;16.71;51.61;101880.97;4977282;28;20395;-77
2022/02/22 04:39:52;;;;;;;;;;;;;;;16.69;51.62;101885.28;4977622;28;19966;-79
2022/02/22 04:42:18;;;;;;;;;;;;;;;16.70;51.61;101887.03;4995074;28;19917;-77
2022/02/22 04:44:44;;;;;;;;;;;;;;;16.70;51.60;101886.16;4993728;28;19914;-77
2022/02/22 04:47:09;;;;;;;;;;;;;;;16.68;51.48;101888.75;4993283;28;19914;-77
2022/02/22 04:49:34;;;;;;;;;;;;;;;16.68;51.47;101888.75;4994579;28;20383;-77
2022/02/22 04:52:00;;;;;;;;;;;;;;;16.69;51.33;101890.47;4994767;28;20335;-78
2022/02/22 04:54:26;;;;;;;;;;;;;;;16.68;51.53;101886.16;4993328;28;20323;-77
2022/02/22 04:56:51;;;;;;;;;;;;;;;16.69;51.51;101894.81;4977305;28;20008;-77
2022/02/22 04:59:16;;;;;;;;;;;;;;;16.68;51.32;101886.16;4993557;28;19949;-78
2022/02/22 05:01:41;;;;;;;;;;;;;;;16.67;51.32;101880.06;4994578;28;19924;-77
2022/02/22 05:04:07;;;;;;;;;;;;;;;16.67;51.35;101881.78;4977065;28;20414;-76
2022/02/22 05:06:32;;;;;;;;;;;;;;;16.66;51.45;101875.72;4973721;28;20274;-79
2022/02/22 05:08:57;;;;;;;;;;;;;;;16.66;51.17;101882.66;4958030;28;19923;-79
2022/02/22 05:11:22;;;;;;;;;;;;;;;16.66;51.32;101880.06;4957734;28;20365;-79
2022/02/22 05:13:48;;;;;;;;;;;;;;;16.66;51.20;101870.53;4975161;28;19922;-77
2022/02/22 05:16:14;;;;;;;;;;;;;;;16.65;51.47;101873.97;4942041;28;20284;-78
2022/02/22 05:18:39;;;;;;;;;;;;;;;16.65;51.32;101873.09;4957432;28;19921;-77
2022/02/22 05:21:04;;;;;;;;;;;;;;;16.65;51.47;101879.16;4944671;28;20013;-77
2022/02/22 05:23:35;;;;;;;;;;;;;;;16.64;51.38;101869.63;4978847;28;19918;-78
2022/02/22 05:26:01;;;;;;;;;;;;;;;16.65;51.35;101863.56;4961542;28;19918;-76
2022/02/22 05:28:27;;;;;;;;;;;;;;;16.65;51.35;101860.13;4961849;28;19918;-76
2022/02/22 05:30:52;;;;;;;;;;;;;;;16.65;51.45;101857.50;4961451;28;19914;-77
2022/02/22 05:33:18;;;;;;;;;;;;;;;16.64;51.41;101853.19;4961423;28;20056;-77
2022/02/22 05:35:47;;;;;;;;;;;;;;;16.63;51.25;101854.88;4961383;28;19911;-77
2022/02/22 05:38:12;;;;;;;;;;;;;;;16.64;51.19;101855.78;4978456;28;20372;-79
2022/02/22 05:40:38;;;;;;;;;;;;;;;16.63;51.31;101854.88;4961018;28;19933;-79
2022/02/22 05:43:03;;;;;;;;;;;;;;;16.63;51.19;101849.69;4961203;28;19918;-77
2022/02/22 05:45:29;;;;;;;;;;;;;;;16.63;51.41;101846.22;4961033;28;20005;-77
2022/02/22 05:47:54;;;;;;;;;;;;;;;16.63;51.34;101852.28;4960701;28;20008;-78
2022/02/22 05:50:19;;;;;;;;;;;;;;;16.62;51.25;101840.16;4960951;28;19925;-77
2022/02/22 05:52:44;;;;;;;;;;;;;;;16.61;51.20;101841.03;4978384;28;19962;-77
2022/02/22 05:55:10;;;;;;;;;;;;;;;16.61;51.25;101825.44;4960838;28;19965;-79
2022/02/22 05:57:35;;;;;;;;;;;;;;;16.61;51.33;101820.25;4978122;28;20005;-78
2022/02/22 06:00:00;;;;;;;;;;;;;;;16.62;50.89;101815.91;4960782;28;19996;-79
2022/02/22 06:02:26;;;;;;;;;;;;;;;16.61;51.36;101815.03;4944749;28;19922;-77
2022/02/22 06:04:52;;;;;;;;;;;;;;;16.61;51.36;101809.84;4979170;28;19918;-78
2022/02/22 06:07:20;;;;;;;;;;;;;;;16.59;51.37;101821.97;4997469;28;19913;-77
2022/02/22 06:09:46;;;;;;;;;;;;;;;16.60;51.46;101820.22;4997273;28;20380;-77
2022/02/22 06:12:11;;;;;;;;;;;;;;;16.58;51.33;101812.41;4979849;28;19918;-80
2022/02/22 06:14:36;;;;;;;;;;;;;;;16.59;51.54;101806.38;4979956;28;19918;-78
2022/02/22 06:17:01;;;;;;;;;;;;;;;16.60;51.79;101805.50;4979912;28;19918;-76
2022/02/22 06:19:27;;;;;;;;;;;;;;;16.71;52.05;101800.41;4979764;28;19918;-78
2022/02/22 06:21:52;;;;;;;;;;;;;;;16.75;51.84;101809.09;4979976;28;19928;-76
2022/02/22 06:24:17;;;;;;;;;;;;;;;16.75;52.08;101801.31;4997114;28;19922;-78
2022/02/22 06:26:43;;;;;;;;;;;;;;;16.77;52.05;101802.19;4995744;28;20383;-78
2022/02/22 06:29:08;;;;;;;;;;;;;;;16.78;52.30;101803.94;4995662;28;20012;-78
2022/02/22 06:31:33;;;;;;;;;;;;;;;16.80;51.95;101799.66;4994812;28;19913;-77
2022/02/22 06:33:59;;;;;;;;;;;;;;;16.81;52.27;101788.38;4979431;28;19918;-76
2022/02/22 06:36:24;;;;;;;;;;;;;;;16.83;52.27;101784.06;4979548;28;19925;-77
2022/02/22 06:38:50;;;;;;;;;;;;;;;16.84;52.30;101788.44;4979560;28;20312;-78
2022/02/22 06:41:16;;;;;;;;;;;;;;;16.83;52.62;101797.97;4979418;28;19922;-77
2022/02/22 06:43:41;;;;;;;;;;;;;;;16.84;52.60;101794.50;4996728;28;19948;-79
2022/02/22 06:46:06;;;;;;;;;;;;;;;16.85;52.48;101796.25;4979404;28;19924;-78
2022/02/22 06:48:31;;;;;;;;;;;;;;;16.86;52.84;101792.78;4979264;28;19940;-77
2022/02/22 06:50:57;;;;;;;;;;;;;;;16.87;52.74;101791.03;4979236;28;20440;-78
2022/02/22 06:53:22;;;;;;;;;;;;;;;16.88;52.64;101787.59;4979158;28;19918;-77
2022/02/22 06:55:47;;;;;;;;;;;;;;;16.89;52.78;101785.84;4995441;28;20036;-77
2022/02/22 06:58:12;;;;;;;;;;;;;;;16.90;52.67;101790.19;4979127;28;19917;-77
2022/02/22 07:00:40;;;;;;;;;;;;;;;16.92;52.90;101780.66;4995243;28;19922;-77
2022/02/22 07:03:05;;;;;;;;;;;;;;;16.93;52.64;101778.09;4979166;28;19918;-77
2022/02/22 07:05:31;;;;;;;;;;;;;;;16.96;52.76;101775.53;4995020;28;19937;-78
2022/02/22 07:07:57;;;;;;;;;;;;;;;16.96;52.79;101770.34;4979225;28;19917;-77
2022/02/22 07:10:23;;;;;;;;;;;;;;;16.96;52.68;101772.03;4996434;28;19968;-77
2022/02/22 07:12:48;;;;;;;;;;;;;;;16.95;52.67;101773.78;4995706;28;19918;-78
2022/02/22 07:15:13;;;;;;;;;;;;;;;16.96;52.68;101766.84;4995072;28;19976;-77
2022/02/22 07:17:52;;;;;;;;;;;;;;;16.97;52.67;101758.19;4995000;28;20004;-78
2022/02/22 07:20:18;;;;;;;;;;;;;;;16.97;52.75;101771.19;4978708;28;19963;-76
2022/02/22 07:22:44;;;;;;;;;;;;;;;16.99;52.73;101761.69;4994936;28;19914;-77
2022/02/22 07:25:10;;;;;;;;;;;;;;;17.00;52.44;101756.47;4995184;28;19953;-78
2022/02/22 07:27:35;;;;;;;;;;;;;;;17.01;52.41;101759.97;4978897;28;20024;-77
2022/02/22 07:30:01;;;;;;;;;;;;;;;17.11;52.50;101748.75;4996546;28;19917;-80
2022/02/22 07:32:26;;;;;;;;;;;;;;;17.17;52.48;101743.59;4996299;28;20379;-79
2022/02/22 07:34:52;;;;;;;;;;;;;;;17.18;52.30;101739.25;4995982;28;19914;-77
2022/02/22 07:37:17;;;;;;;;;;;;;;;17.20;52.10;101735.84;4978535;28;19918;-79
2022/02/22 07:39:42;;;;;;;;;;;;;;;17.20;52.11;101735.84;4978440;28;19924;-84
2022/02/22 07:42:07;;;;;;;;;;;;;;;17.22;52.09;101738.41;4978587;28;19988;-84
2022/02/22 07:44:33;;;;;;;;;;;;;;;17.25;52.03;101741.06;4977595;28;19921;-82
2022/02/22 07:46:58;;;;;;;;;;;;;;;17.27;52.01;101734.13;4978439;28;19918;-82
2022/02/22 07:49:23;;;;;;;;;;;;;;;17.30;51.86;101730.69;4978270;28;19918;-83
2022/02/22 07:51:49;;;;;;;;;;;;;;;17.31;52.00;101737.59;4978004;28;19976;-79
2022/02/22 07:54:14;;;;;;;;;;;;;;;17.29;52.09;101737.63;4978264;28;19920;-85
2022/02/22 07:56:40;;;;;;;;;;;;;;;17.30;52.15;101730.69;4995306;28;20005;-83
2022/02/22 07:59:05;;;;;;;;;;;;;;;17.31;52.10;101724.59;4978158;28;20257;-83
2022/02/22 08:01:30;;;;;;;;;;;;;;;17.31;52.02;101720.28;4977850;28;19922;-84
2022/02/22 08:03:56;;;;;;;;;;;;;;;17.34;51.88;101720.28;4978206;28;19918;-84
2022/02/22 08:06:21;;;;;;;;;;;;;;;17.35;52.05;101719.41;4977741;28;19926;-79
2022/02/22 08:08:46;;;;;;;;;;;;;;;17.38;51.90;101718.59;4978468;28;19918;-82
2022/02/22 08:11:12;;;;;;;;;;;;;;;17.39;51.69;101710.78;4977863;28;19925;-84
2022/02/22 08:13:37;;;;;;;;;;;;;;;17.37;51.71;101707.28;4993992;28;20008;-83
2022/02/22 08:16:03;;;;;;;;;;;;;;;17.37;51.78;101698.63;4977644;28;19918;-84
2022/02/22 08:18:28;;;;;;;;;;;;;;;17.39;51.81;101694.28;4977709;28;19960;-82
2022/02/22 08:20:54;;;;;;;;;;;;;;;17.41;51.51;101695.19;4995226;28;20000;-83
2022/02/22 08:23:19;;;;;;;;;;;;;;;17.39;51.77;101684.75;4995667;28;20374;-83
2022/02/22 08:25:44;;;;;;;;;;;;;;;17.38;51.82;101672.63;4978012;28;19924;-81
2022/02/22 08:28:11;;;;;;;;;;;;;;;17.41;51.76;101669.16;4977891;28;19922;-82
2022/02/22 08:30:38;;;;;;;;;;;;;;;17.39;51.65;101661.34;4995161;28;19949;-78
2022/02/22 08:33:03;;;;;;;;;;;;;;;17.39;51.67;101648.31;4994037;28;19914;-78
2022/02/22 08:35:29;;;;;;;;;;;;;;;17.41;51.70;101640.53;4993742;28;19940;-82
2022/02/22 08:37:54;;;;;;;;;;;;;;;17.42;51.57;101632.75;4977583;28;19964;-81
2022/02/22 08:40:19;;;;;;;;;;;;;;;17.43;51.57;101636.22;4994798;28;19921;-80
2022/02/22 08:42:45;;;;;;;;;;;;;;;17.43;51.57;101628.41;4994772;28;20427;-82
2022/02/22 08:45:10;;;;;;;;;;;;;;;17.42;51.57;101617.13;4977502;28;19925;-81
2022/02/22 08:47:35;;;;;;;;;;;;;;;17.41;51.56;101624.94;4977248;28;20017;-81
2022/02/22 08:50:00;;;;;;;;;;;;;;;17.40;51.68;101618.00;4977160;28;19964;-80
2022/02/22 08:52:29;;;;;;;;;;;;;;;17.37;51.80;101611.03;4977404;28;19918;-81
2022/02/22 08:54:55;;;;;;;;;;;;;;;17.37;51.71;101610.16;4976974;28;20377;-81
2022/02/22 08:57:21;;;;;;;;;;;;;;;17.41;51.66;101604.97;4977301;28;19918;-82
2022/02/22 08:59:46;;;;;;;;;;;;;;;17.46;51.47;101599.78;4977263;28;19925;-81
2022/02/22 09:02:13;;;;;;;;;;;;;;;17.45;51.71;101592.84;4993244;28;19918;-82
2022/02/22 09:04:38;;;;;;;;;;;;;;;17.42;51.63;101591.13;4977199;28;19917;-81
2022/02/22 09:07:03;;;;;;;;;;;;;;;17.39;51.68;101596.28;4976875;28;19930;-80
2022/02/22 09:09:29;;;;;;;;;;;;;;;17.37;51.87;101592.81;4994344;28;19913;-80
2022/02/22 09:11:54;;;;;;;;;;;;;;;17.36;51.76;101598.91;4976836;28;20004;-80
2022/02/22 09:14:21;;;;;;;;;;;;;;;17.38;51.77;101601.50;4977023;28;19965;-80
2022/02/22 09:16:46;;;;;;;;;;;;;;;17.39;51.56;101600.63;4977145;28;19956;-79
2022/02/22 09:19:11;;;;;;;;;;;;;;;17.37;51.65;101594.56;4976978;28;20376;-80
2022/02/22 09:21:37;;;;;;;;;;;;;;;17.40;51.60;101611.06;4976967;28;19972;-79
2022/02/22 09:24:02;;;;;;;;;;;;;;;17.42;51.78;101618.84;4976983;28;19925;-81
2022/02/22 09:26:27;;;;;;;;;;;;;;;17.42;51.66;101627.53;4977027;28;20008;-78
2022/02/22 09:28:54;;;;;;;;;;;;;;;17.39;51.55;101619.72;4977047;28;19968;-81
2022/02/22 09:31:19;;;;;;;;;;;;;;;17.37;51.92;101626.63;4977262;28;19925;-80
2022/02/22 09:33:46;;;;;;;;;;;;;;;17.32;51.89;101630.97;4976806;28;19918;-81
2022/02/22 09:36:11;;;;;;;;;;;;;;;17.29;52.11;101628.38;4993816;28;19921;-79
2022/02/22 09:38:37;;;;;;;;;;;;;;;17.29;51.87;101623.16;4993053;28;19914;-82
2022/02/22 09:41:03;;;;;;;;;;;;;;;17.28;51.97;101616.19;4993008;28;19924;-81
2022/02/22 09:43:28;;;;;;;;;;;;;;;17.29;51.86;101604.94;4976917;28;20348;-81
2022/02/22 09:45:55;;;;;;;;;;;;;;;17.28;51.82;101606.66;4976761;28;19917;-84
2022/02/22 09:48:20;;;;;;;;;;;;;;;17.27;51.83;101599.72;4994274;28;19991;-83
2022/02/22 09:50:45;;;;;;;;;;;;;;;17.26;51.91;101595.38;4976786;28;19965;-81
2022/02/22 09:53:11;;;;;;;;;;;;;;;17.28;51.81;101590.19;4976752;28;19918;-81
2022/02/22 09:55:36;;;;;;;;;;;;;;;17.26;51.95;101576.31;4993006;28;20329;-82
2022/02/22 09:58:02;;;;;;;;;;;;;;;17.26;51.81;101568.50;4994116;28;19920;-83
2022/02/22 10:00:31;;;;;;;;;;;;;;;17.26;51.73;101564.16;4992961;28;20379;-83
2022/02/22 10:02:57;;;;;;;;;;;;;;;17.26;51.74;101563.28;4993033;28;19964;-84
2022/02/22 10:05:23;;;;;;;;;;;;;;;17.26;51.83;101547.69;4976608;28;20340;-85
2022/02/22 10:07:56;;;;;;;;;;;;;;;17.24;51.80;101547.69;4996452;28;19921;-83
2022/02/22 10:10:51;;;;;;;;;;;;;;;17.22;51.77;101543.34;4996058;28;19953;-82
2022/02/22 10:13:17;;;;;;;;;;;;;;;17.21;52.01;101547.69;4979509;28;19920;-83
2022/02/22 10:15:44;;;;;;;;;;;;;;;17.22;51.82;101538.13;4996203;28;19917;-77
2022/02/22 10:18:10;;;;;;;;;;;;;;;17.20;51.77;101529.47;4997289;28;19925;-79
2022/02/22 10:20:36;;;;;;;;;;;;;;;17.20;51.89;101514.75;4996071;28;19921;-79
2022/02/22 10:23:02;;;;;;;;;;;;;;;17.21;51.69;101513.88;4996068;28;19913;-80
2022/02/22 10:25:27;;;;;;;;;;;;;;;17.22;51.73;101514.72;4995942;28;19914;-80
2022/02/22 10:27:54;;;;;;;;;;;;;;;17.19;51.89;101505.19;4979937;28;20038;-81
2022/02/22 10:30:23;;;;;;;;;;;;;;;17.18;51.71;101505.19;4996003;28;19914;-79
2022/02/22 10:32:48;;;;;;;;;;;;;;;17.18;51.95;101500.88;4979623;28;20352;-80
2022/02/22 10:35:14;;;;;;;;;;;;;;;17.18;52.12;101500.88;4997007;28;20004;-81
2022/02/22 10:37:39;;;;;;;;;;;;;;;17.16;51.76;101520.78;4979377;28;19956;-82
2022/02/22 10:40:04;;;;;;;;;;;;;;;17.18;51.89;101525.97;4979456;28;19969;-81
2022/02/22 10:42:36;;;;;;;;;;;;;;;17.18;51.83;101521.66;4979283;28;19973;-79
2022/02/22 10:45:09;;;;;;;;;;;;;;;17.19;51.84;101526.00;4995497;28;19913;-79
2022/02/22 10:47:38;;;;;;;;;;;;;;;17.18;51.74;101512.97;4996753;28;19920;-79
2022/02/22 10:50:05;;;;;;;;;;;;;;;17.18;51.74;101518.19;4995822;28;19914;-80
2022/02/22 10:52:31;;;;;;;;;;;;;;;17.18;51.86;101510.38;4996748;28;19913;-79
2022/02/22 10:55:00;;;;;;;;;;;;;;;17.19;51.80;101509.53;4995332;28;19914;-80
2022/02/22 10:57:26;;;;;;;;;;;;;;;17.17;51.96;101517.31;4995308;28;19914;-79
2022/02/22 10:59:52;;;;;;;;;;;;;;;17.16;51.82;101492.19;4979298;28;20463;-80
2022/02/22 11:02:18;;;;;;;;;;;;;;;17.17;51.83;101493.91;4979363;28;20300;-84
2022/02/22 11:04:43;;;;;;;;;;;;;;;17.21;51.69;101479.19;4979808;28;19918;-82
2022/02/22 11:07:10;;;;;;;;;;;;;;;17.20;51.78;101495.66;4978907;28;19988;-80
2022/02/22 11:09:35;;;;;;;;;;;;;;;17.18;51.85;101495.66;4995056;28;20008;-81
2022/02/22 11:12:03;;;;;;;;;;;;;;;17.19;51.89;101507.78;4978945;28;19961;-81
2022/02/22 11:14:30;;;;;;;;;;;;;;;17.18;51.74;101515.56;4978934;28;19918;-80
2022/02/22 11:17:00;;;;;;;;;;;;;;;17.19;51.93;101522.53;4996463;28;19921;-82
2022/02/22 11:19:26;;;;;;;;;;;;;;;17.19;51.95;101501.72;4994770;28;19914;-81
2022/02/22 11:21:53;;;;;;;;;;;;;;;17.21;51.94;101476.59;4994812;28;19932;-82
2022/02/22 11:24:19;;;;;;;;;;;;;;;17.25;51.66;101465.34;4994952;28;19965;-82
2022/02/22 11:26:45;;;;;;;;;;;;;;;17.29;51.76;101474.88;4978849;28;19972;-84
2022/02/22 11:29:11;;;;;;;;;;;;;;;17.31;51.70;101459.25;4994864;28;19914;-83
2022/02/22 11:31:36;;;;;;;;;;;;;;;17.32;51.39;101463.59;4995032;28;19921;-78
2022/02/22 11:34:03;;;;;;;;;;;;;;;17.33;51.58;101462.72;4996401;28;19997;-80
2022/02/22 11:36:31;;;;;;;;;;;;;;;17.31;51.37;101441.94;4994850;28;20376;-81
2022/02/22 11:38:57;;;;;;;;;;;;;;;17.30;51.63;101440.19;4978525;28;19913;-79
2022/02/22 11:41:24;;;;;;;;;;;;;;;17.29;51.45;101448.88;4978393;28;19969;-81
2022/02/22 11:43:50;;;;;;;;;;;;;;;17.28;51.70;101434.97;4995789;28;19914;-80
2022/02/22 11:46:16;;;;;;;;;;;;;;;17.27;51.55;101430.66;4994583;28;20332;-81
2022/02/22 11:48:41;;;;;;;;;;;;;;;17.24;51.68;101419.34;4978307;28;19925;-81
2022/02/22 11:51:15;;;;;;;;;;;;;;;17.21;51.77;101414.16;4988740;28;20028;-82
2022/02/22 11:53:42;;;;;;;;;;;;;;;17.25;51.82;101410.72;4978459;28;19922;-81
2022/02/22 11:56:07;;;;;;;;;;;;;;;17.30;51.64;101405.50;4995518;28;19921;-81
2022/02/22 11:58:33;;;;;;;;;;;;;;;17.30;51.69;101411.56;5000855;28;19914;-81
2022/02/22 12:01:05;;;;;;;;;;;;;;;17.34;51.69;101409.84;4997746;28;19925;-82
2022/02/22 12:03:40;;;;;;;;;;;;;;;17.34;51.38;101409.84;4997133;28;19918;-80
2022/02/22 12:06:05;;;;;;;;;;;;;;;17.35;51.48;101406.38;4997417;28;19929;-80
2022/02/22 12:08:38;;;;;;;;;;;;;;;17.38;51.57;101414.19;4981369;28;19918;-80
2022/02/22 12:11:06;;;;;;;;;;;;;;;17.37;51.59;101405.50;4978079;28;20356;-80
2022/02/22 12:13:42;;;;;;;;;;;;;;;17.38;51.42;101393.38;4977688;28;19921;-79
2022/02/22 12:16:18;;;;;;;;;;;;;;;17.37;51.45;101392.47;4995170;28;19953;-79
2022/02/22 12:18:44;;;;;;;;;;;;;;;17.37;51.69;101379.47;4995037;28;19914;-83
2022/02/22 12:21:10;;;;;;;;;;;;;;;17.36;51.65;101382.09;4977642;28;19929;-83
2022/02/22 12:23:37;;;;;;;;;;;;;;;17.35;51.58;101357.78;4961553;28;20376;-82
2022/02/22 12:26:06;;;;;;;;;;;;;;;17.36;51.49;101363.88;4977563;28;19913;-82
2022/02/22 12:28:42;;;;;;;;;;;;;;;17.36;51.36;101343.94;4977666;28;20391;-82